Time;durP1;ratioP1;P1;durP2;ratioP2;P2;SDS_P1;SDS_P2;PMS_P1;PMS_P2;Temp;Humidity;BMP_temperature;BMP_pressure;BME280_temperature;BME280_humidity;BME280_pressure;Samples;Min_cycle;Max_cycle;Signal;HPM_P1;HPM_P2
2023/04/29 00:00:28;;;;;;;;;;;;;;;;;;4997835;28;19928;-91
2023/04/29 00:02:54;;;;;;;;;;;;;;;;;;4997798;28;19944;-91
2023/04/29 00:05:20;;;;;;;;;;;;;;;;;;5013763;28;19929;-91
2023/04/29 00:07:46;;;;;;;;;;;;;;;;;;4997340;28;19988;-90
2023/04/29 00:10:13;;;;;;;;;;;;;;;;;;4997603;28;20369;-91
2023/04/29 00:12:40;;;;;;;;;;;;;;;;;;4996775;28;20289;-91
2023/04/29 00:15:06;;;;;;;;;;;;;;;;;;5013135;28;19922;-91
2023/04/29 00:17:32;;;;;;;;;;;;;;;;;;4997347;28;19928;-91
2023/04/29 00:19:57;;;;;;;;;;;;;;;;;;5013994;28;19928;-91
2023/04/29 00:22:23;;;;;;;;;;;;;;;;;;4997450;28;19921;-91
2023/04/29 00:24:50;;;;;;;;;;;;;;;;;;4997047;28;19929;-91
2023/04/29 00:27:16;;;;;;;;;;;;;;;;;;4997668;28;19929;-91
2023/04/29 00:29:42;;;;;;;;;;;;;;;;;;4997383;28;19949;-91
2023/04/29 00:32:08;;;;;;;;;;;;;;;;;;4997103;28;19921;-90
2023/04/29 00:34:34;;;;;;;;;;;;;;;;;;4997093;28;19964;-91
2023/04/29 00:37:00;;;;;;;;;;;;;;;;;;5013641;28;19968;-92
2023/04/29 00:39:26;;;;;;;;;;;;;;;;;;4997578;28;19921;-91
2023/04/29 00:41:52;;;;;;;;;;;;;;;;;;4997314;28;20104;-92
2023/04/29 00:44:18;;;;;;;;;;;;;;;;;;4997994;28;19964;-92
2023/04/29 00:46:44;;;;;;;;;;;;;;;;;;4999251;28;19921;-92
2023/04/29 00:49:09;;;;;;;;;;;;;;;;;;5015825;28;19958;-92
2023/04/29 00:51:35;;;;;;;;;;;;;;;;;;5016789;28;19951;-92
2023/04/29 00:54:01;;;;;;;;;;;;;;;;;;5017027;28;19959;-92
2023/04/29 00:56:29;;;;;;;;;;;;;;;;;;5016604;28;19984;-92
2023/04/29 00:58:55;;;;;;;;;;;;;;;;;;5000211;28;20022;-91
2023/04/29 01:01:22;;;;;;;;;;;;;;;;;;5016317;28;19921;-91
2023/04/29 01:03:48;;;;;;;;;;;;;;;;;;4999688;28;20373;-91
2023/04/29 01:06:13;;;;;;;;;;;;;;;;;;4999752;28;19928;-90
2023/04/29 01:08:39;;;;;;;;;;;;;;;;;;4999905;28;19921;-91
2023/04/29 01:11:06;;;;;;;;;;;;;;;;;;4999876;28;20020;-92
2023/04/29 01:13:32;;;;;;;;;;;;;;;;;;4999888;28;19928;-91
2023/04/29 01:15:58;;;;;;;;;;;;;;;;;;5015915;28;19947;-92
2023/04/29 01:18:23;;;;;;;;;;;;;;;;;;4999747;28;19948;-91
2023/04/29 01:20:49;;;;;;;;;;;;;;;;;;4999572;28;20272;-92
2023/04/29 01:23:15;;;;;;;;;;;;;;;;;;5015605;28;19925;-92
2023/04/29 01:25:42;;;;;;;;;;;;;;;;;;4998405;28;20020;-91
2023/04/29 01:28:08;;;;;;;;;;;;;;;;;;4999195;28;20333;-92
2023/04/29 01:30:34;;;;;;;;;;;;;;;;;;5015805;28;19975;-91
2023/04/29 01:33:00;;;;;;;;;;;;;;;;;;4999142;28;19947;-91
2023/04/29 01:35:26;;;;;;;;;;;;;;;;;;5015203;28;19943;-91
2023/04/29 01:37:52;;;;;;;;;;;;;;;;;;4999189;28;20254;-91
2023/04/29 01:40:17;;;;;;;;;;;;;;;;;;4999197;28;19921;-92
2023/04/29 01:42:44;;;;;;;;;;;;;;;;;;4999192;28;19921;-91
2023/04/29 01:45:10;;;;;;;;;;;;;;;;;;5015528;28;19967;-91
2023/04/29 01:47:36;;;;;;;;;;;;;;;;;;5015536;28;19921;-91
2023/04/29 01:50:02;;;;;;;;;;;;;;;;;;4995438;28;19926;-91
2023/04/29 01:52:28;;;;;;;;;;;;;;;;;;4995631;28;19928;-91
2023/04/29 01:54:54;;;;;;;;;;;;;;;;;;4995578;28;19922;-92
2023/04/29 01:57:20;;;;;;;;;;;;;;;;;;4995291;28;19926;-91
2023/04/29 01:59:46;;;;;;;;;;;;;;;;;;4995349;28;19979;-91
2023/04/29 02:02:14;;;;;;;;;;;;;;;;;;4995234;28;19921;-91
2023/04/29 02:04:40;;;;;;;;;;;;;;;;;;4995513;28;19922;-91
2023/04/29 02:07:06;;;;;;;;;;;;;;;;;;4995537;28;19928;-91
2023/04/29 02:09:32;;;;;;;;;;;;;;;;;;5011467;28;19926;-91
2023/04/29 02:11:58;;;;;;;;;;;;;;;;;;4995365;28;20403;-92
2023/04/29 02:14:23;;;;;;;;;;;;;;;;;;5011749;28;19928;-91
2023/04/29 02:16:49;;;;;;;;;;;;;;;;;;4995394;28;19937;-92
2023/04/29 02:19:15;;;;;;;;;;;;;;;;;;4995530;28;19928;-91
2023/04/29 02:21:41;;;;;;;;;;;;;;;;;;5012271;28;20367;-92
2023/04/29 02:24:07;;;;;;;;;;;;;;;;;;5011504;28;19921;-90
2023/04/29 02:26:34;;;;;;;;;;;;;;;;;;4995142;28;19921;-90
2023/04/29 02:29:02;;;;;;;;;;;;;;;;;;4995229;28;19976;-91
2023/04/29 02:31:28;;;;;;;;;;;;;;;;;;5011596;28;19921;-91
2023/04/29 02:33:54;;;;;;;;;;;;;;;;;;4995352;28;20422;-91
2023/04/29 02:36:20;;;;;;;;;;;;;;;;;;4994091;28;19977;-91
2023/04/29 02:38:49;;;;;;;;;;;;;;;;;;4995103;28;20008;-91
2023/04/29 02:41:15;;;;;;;;;;;;;;;;;;4995153;28;19925;-91
2023/04/29 02:43:41;;;;;;;;;;;;;;;;;;5011416;28;19929;-91
2023/04/29 02:46:07;;;;;;;;;;;;;;;;;;4995015;28;20024;-92
2023/04/29 02:48:33;;;;;;;;;;;;;;;;;;4994893;28;19972;-91
2023/04/29 02:50:59;;;;;;;;;;;;;;;;;;5011362;28;20019;-90
2023/04/29 02:53:25;;;;;;;;;;;;;;;;;;4994841;28;19980;-91
2023/04/29 02:55:50;;;;;;;;;;;;;;;;;;4994940;28;20365;-91
2023/04/29 02:58:17;;;;;;;;;;;;;;;;;;4994914;28;19979;-91
2023/04/29 03:00:42;;;;;;;;;;;;;;;;;;4994806;28;20455;-92
2023/04/29 03:03:08;;;;;;;;;;;;;;;;;;5011433;28;20005;-92
2023/04/29 03:05:34;;;;;;;;;;;;;;;;;;4994888;28;19976;-91
2023/04/29 03:08:00;;;;;;;;;;;;;;;;;;5011359;28;19932;-91
2023/04/29 03:10:26;;;;;;;;;;;;;;;;;;5011314;28;19925;-91
2023/04/29 03:12:52;;;;;;;;;;;;;;;;;;4994751;28;20293;-91
2023/04/29 03:15:18;;;;;;;;;;;;;;;;;;4994787;28;19994;-91
2023/04/29 03:17:45;;;;;;;;;;;;;;;;;;5011220;28;20035;-91
2023/04/29 03:20:11;;;;;;;;;;;;;;;;;;5011437;28;20012;-92
2023/04/29 03:22:37;;;;;;;;;;;;;;;;;;4994996;28;19968;-91
2023/04/29 03:25:02;;;;;;;;;;;;;;;;;;4994835;28;19925;-91
2023/04/29 03:27:28;;;;;;;;;;;;;;;;;;4994803;28;19937;-91
2023/04/29 03:29:54;;;;;;;;;;;;;;;;;;5010714;28;19957;-92
2023/04/29 03:32:20;;;;;;;;;;;;;;;;;;4995070;28;19921;-91
2023/04/29 03:34:46;;;;;;;;;;;;;;;;;;4994936;28;20016;-92
2023/04/29 03:37:12;;;;;;;;;;;;;;;;;;5011511;28;19928;-91
2023/04/29 03:39:38;;;;;;;;;;;;;;;;;;4994906;28;19921;-91
2023/04/29 03:42:04;;;;;;;;;;;;;;;;;;4994624;28;19929;-89
2023/04/29 03:44:30;;;;;;;;;;;;;;;;;;5010867;28;19948;-91
2023/04/29 03:46:56;;;;;;;;;;;;;;;;;;4994816;28;19921;-91
2023/04/29 03:49:22;;;;;;;;;;;;;;;;;;5013949;28;19941;-92
2023/04/29 03:51:48;;;;;;;;;;;;;;;;;;5014470;28;19928;-91
2023/04/29 03:54:14;;;;;;;;;;;;;;;;;;4997600;28;19921;-91
2023/04/29 03:56:40;;;;;;;;;;;;;;;;;;4998169;28;20021;-91
2023/04/29 03:59:06;;;;;;;;;;;;;;;;;;4997888;28;19921;-91
2023/04/29 04:01:32;;;;;;;;;;;;;;;;;;5014292;28;20373;-91
2023/04/29 04:03:58;;;;;;;;;;;;;;;;;;4998251;28;19922;-91
2023/04/29 04:06:24;;;;;;;;;;;;;;;;;;4997924;28;19968;-92
2023/04/29 04:08:50;;;;;;;;;;;;;;;;;;4997478;28;19925;-91
2023/04/29 04:11:16;;;;;;;;;;;;;;;;;;4997611;28;19922;-91
2023/04/29 04:13:45;;;;;;;;;;;;;;;;;;5014206;28;19939;-91
2023/04/29 04:16:10;;;;;;;;;;;;;;;;;;4997670;28;19929;-91
2023/04/29 04:18:37;;;;;;;;;;;;;;;;;;4997607;28;19921;-92
2023/04/29 04:21:03;;;;;;;;;;;;;;;;;;4997114;28;19928;-91
2023/04/29 04:23:29;;;;;;;;;;;;;;;;;;5013843;28;20336;-91
2023/04/29 04:25:56;;;;;;;;;;;;;;;;;;4997161;28;19965;-91
2023/04/29 04:28:22;;;;;;;;;;;;;;;;;;4997421;28;20016;-92
2023/04/29 04:30:48;;;;;;;;;;;;;;;;;;4997379;28;20448;-91
2023/04/29 04:33:14;;;;;;;;;;;;;;;;;;4997282;28;19921;-91
2023/04/29 04:35:40;;;;;;;;;;;;;;;;;;5013641;28;19929;-90
2023/04/29 04:38:06;;;;;;;;;;;;;;;;;;5013579;28;20334;-90
2023/04/29 04:40:32;;;;;;;;;;;;;;;;;;4997022;28;20048;-90
2023/04/29 04:42:58;;;;;;;;;;;;;;;;;;4996764;28;19975;-90
2023/04/29 04:45:24;;;;;;;;;;;;;;;;;;5012832;28;19932;-90
2023/04/29 04:47:50;;;;;;;;;;;;;;;;;;4996402;28;19928;-90
2023/04/29 04:50:16;;;;;;;;;;;;;;;;;;5012785;28;19972;-90
2023/04/29 04:52:42;;;;;;;;;;;;;;;;;;5012989;28;19921;-90
2023/04/29 04:55:08;;;;;;;;;;;;;;;;;;5012777;28;20391;-90
2023/04/29 04:57:34;;;;;;;;;;;;;;;;;;5012550;28;20280;-90
2023/04/29 05:00:01;;;;;;;;;;;;;;;;;;4995336;28;19921;-91
2023/04/29 05:02:27;;;;;;;;;;;;;;;;;;4996626;28;19928;-90
2023/04/29 05:04:53;;;;;;;;;;;;;;;;;;4996468;28;19922;-90
2023/04/29 05:07:19;;;;;;;;;;;;;;;;;;5012602;28;19968;-90
2023/04/29 05:09:45;;;;;;;;;;;;;;;;;;5012278;28;20371;-90
2023/04/29 05:12:11;;;;;;;;;;;;;;;;;;4996297;28;20150;-90
2023/04/29 05:14:37;;;;;;;;;;;;;;;;;;5012539;28;19921;-90
2023/04/29 05:17:03;;;;;;;;;;;;;;;;;;4996106;28;20396;-90
2023/04/29 05:19:29;;;;;;;;;;;;;;;;;;4995814;28;20291;-90
2023/04/29 05:21:54;;;;;;;;;;;;;;;;;;4996120;28;19974;-91
2023/04/29 05:24:20;;;;;;;;;;;;;;;;;;4995980;28;19921;-90
2023/04/29 05:26:48;;;;;;;;;;;;;;;;;;5012507;28;19942;-90
2023/04/29 05:29:14;;;;;;;;;;;;;;;;;;4996270;28;20364;-91
2023/04/29 05:31:40;;;;;;;;;;;;;;;;;;4995933;28;20355;-91
2023/04/29 05:34:06;;;;;;;;;;;;;;;;;;5012432;28;19921;-91
2023/04/29 05:36:32;;;;;;;;;;;;;;;;;;4996196;28;20062;-91
2023/04/29 05:38:58;;;;;;;;;;;;;;;;;;5012100;28;19921;-91
2023/04/29 05:41:24;;;;;;;;;;;;;;;;;;5012183;28;20214;-91
2023/04/29 05:43:50;;;;;;;;;;;;;;;;;;4996015;28;20335;-91
2023/04/29 05:46:16;;;;;;;;;;;;;;;;;;4995959;28;19928;-91
2023/04/29 05:48:42;;;;;;;;;;;;;;;;;;4995755;28;19921;-91
2023/04/29 05:51:08;;;;;;;;;;;;;;;;;;5011825;28;19925;-91
2023/04/29 05:53:35;;;;;;;;;;;;;;;;;;4996209;28;19991;-91
2023/04/29 05:56:05;;;;;;;;;;;;;;;;;;5011866;28;19942;-90
2023/04/29 05:58:31;;;;;;;;;;;;;;;;;;4995775;28;19972;-91
2023/04/29 06:00:57;;;;;;;;;;;;;;;;;;5011758;28;19925;-90
2023/04/29 06:03:23;;;;;;;;;;;;;;;;;;5011835;28;20373;-90
2023/04/29 06:05:49;;;;;;;;;;;;;;;;;;4995922;28;19952;-90
2023/04/29 06:08:15;;;;;;;;;;;;;;;;;;5011677;28;19980;-91
2023/04/29 06:10:41;;;;;;;;;;;;;;;;;;4995162;28;19999;-90
2023/04/29 06:13:06;;;;;;;;;;;;;;;;;;5011611;28;20383;-90
2023/04/29 06:15:32;;;;;;;;;;;;;;;;;;5011590;28;19921;-90
2023/04/29 06:17:58;;;;;;;;;;;;;;;;;;4995106;28;20226;-90
2023/04/29 06:20:24;;;;;;;;;;;;;;;;;;5011416;28;19928;-90
2023/04/29 06:22:50;;;;;;;;;;;;;;;;;;5011373;28;20021;-90
2023/04/29 06:25:16;;;;;;;;;;;;;;;;;;4995314;28;19921;-90
2023/04/29 06:27:42;;;;;;;;;;;;;;;;;;5011898;28;20397;-90
2023/04/29 06:30:08;;;;;;;;;;;;;;;;;;5011136;28;19930;-91
2023/04/29 06:32:34;;;;;;;;;;;;;;;;;;5011200;28;19948;-90
2023/04/29 06:35:00;;;;;;;;;;;;;;;;;;4994700;28;19922;-90
2023/04/29 06:37:26;;;;;;;;;;;;;;;;;;4994995;28;20309;-90
2023/04/29 06:39:52;;;;;;;;;;;;;;;;;;4994993;28;19928;-90
2023/04/29 06:42:18;;;;;;;;;;;;;;;;;;4994861;28;20289;-91
2023/04/29 06:44:44;;;;;;;;;;;;;;;;;;5010936;28;20369;-90
2023/04/29 06:47:10;;;;;;;;;;;;;;;;;;4994628;28;19921;-90
2023/04/29 06:49:36;;;;;;;;;;;;;;;;;;5010844;28;20368;-90
2023/04/29 06:52:02;;;;;;;;;;;;;;;;;;5011018;28;19921;-91
2023/04/29 06:54:28;;;;;;;;;;;;;;;;;;4994624;28;19925;-91
2023/04/29 06:56:53;;;;;;;;;;;;;;;;;;5011635;28;20308;-91
2023/04/29 06:59:19;;;;;;;;;;;;;;;;;;5011757;28;19969;-93
2023/04/29 07:01:45;;;;;;;;;;;;;;;;;;5012127;28;19969;-95
2023/04/29 07:04:11;;;;;;;;;;;;;;;;;;4994970;28;19928;-94
2023/04/29 07:06:37;;;;;;;;;;;;;;;;;;4995136;28;19976;-91
2023/04/29 07:09:03;;;;;;;;;;;;;;;;;;5012249;28;19925;-91
2023/04/29 07:11:29;;;;;;;;;;;;;;;;;;5011130;28;19945;-91
2023/04/29 07:13:55;;;;;;;;;;;;;;;;;;4994944;28;19933;-92
2023/04/29 07:16:25;;;;;;;;;;;;;;;;;;4994535;28;20012;-93
2023/04/29 07:18:51;;;;;;;;;;;;;;;;;;5011949;28;20340;-92
2023/04/29 07:21:17;;;;;;;;;;;;;;;;;;4995165;28;20024;-92
2023/04/29 07:23:43;;;;;;;;;;;;;;;;;;4997813;28;20388;-95
2023/04/29 07:26:09;;;;;;;;;;;;;;;;;;4999962;28;19921;-96
2023/04/29 07:28:35;;;;;;;;;;;;;;;;;;4998905;28;19925;-95
2023/04/29 07:31:05;;;;;;;;;;;;;;;;;;5015158;28;19928;-93
2023/04/29 07:33:31;;;;;;;;;;;;;;;;;;4998916;28;19921;-94
2023/04/29 07:35:57;;;;;;;;;;;;;;;;;;4999751;28;19977;-93
2023/04/29 07:38:23;;;;;;;;;;;;;;;;;;4998949;28;19980;-94
2023/04/29 07:40:49;;;;;;;;;;;;;;;;;;5015745;28;19968;-94
2023/04/29 07:43:15;;;;;;;;;;;;;;;;;;4999103;28;19926;-93
2023/04/29 07:45:41;;;;;;;;;;;;;;;;;;4998359;28;20002;-96
2023/04/29 07:48:07;;;;;;;;;;;;;;;;;;4998761;28;19928;-94
2023/04/29 07:50:33;;;;;;;;;;;;;;;;;;5014991;28;19925;-94
2023/04/29 07:53:00;;;;;;;;;;;;;;;;;;4998584;28;19929;-94
2023/04/29 07:55:28;;;;;;;;;;;;;;;;;;4998608;28;19973;-94
2023/04/29 07:57:54;;;;;;;;;;;;;;;;;;4998794;28;19932;-95
2023/04/29 08:00:20;;;;;;;;;;;;;;;;;;4998426;28;19921;-95
2023/04/29 08:02:46;;;;;;;;;;;;;;;;;;4997878;28;19928;-95
2023/04/29 08:05:12;;;;;;;;;;;;;;;;;;4998373;28;20324;-94
2023/04/29 08:07:38;;;;;;;;;;;;;;;;;;5013893;28;20055;-94
2023/04/29 08:10:04;;;;;;;;;;;;;;;;;;5014328;28;19964;-94
2023/04/29 08:12:30;;;;;;;;;;;;;;;;;;4997897;28;19932;-95
2023/04/29 08:14:56;;;;;;;;;;;;;;;;;;4998183;28;20007;-96
2023/04/29 08:17:22;;;;;;;;;;;;;;;;;;5001516;28;20333;-94
2023/04/29 08:19:48;;;;;;;;;;;;;;;;;;5003148;28;20105;-96
2023/04/29 08:22:14;;;;;;;;;;;;;;;;;;4998667;28;19987;-95
2023/04/29 08:24:44;;;;;;;;;;;;;;;;;;5000161;28;19922;-96
2023/04/29 08:27:20;;;;;;;;;;;;;;;;;;4999437;28;19922;-96
2023/04/29 08:29:46;;;;;;;;;;;;;;;;;;5013190;28;20091;-96
2023/04/29 08:32:15;;;;;;;;;;;;;;;;;;5000432;28;20397;-96
2023/04/29 08:35:10;;;;;;;;;;;;;;;;;;;;;
2023/04/29 08:50:43;;;;;;;;;;;;;;;;;;5191827;23;20284;-96
2023/04/29 08:53:09;;;;;;;;;;;;;;;;;;5003400;28;19948;-95
2023/04/29 08:55:35;;;;;;;;;;;;;;;;;;5005711;28;19932;-94
2023/04/29 08:58:01;;;;;;;;;;;;;;;;;;5306590;23;19925;-94
2023/04/29 09:00:29;;;;;;;;;;;;;;;;;;4984355;28;19932;-94
2023/04/29 09:02:55;;;;;;;;;;;;;;;;;;4983022;28;20012;-96
2023/04/29 09:05:25;;;;;;;;;;;;;;;;;;4997795;28;19944;-96
2023/04/29 09:07:51;;;;;;;;;;;;;;;;;;4982674;28;19918;-95
2023/04/29 09:10:17;;;;;;;;;;;;;;;;;;4983799;28;19925;-96
2023/04/29 09:12:46;;;;;;;;;;;;;;;;;;4983457;28;19921;-96
2023/04/29 09:15:12;;;;;;;;;;;;;;;;;;4983022;28;19987;-96
2023/04/29 09:17:46;;;;;;;;;;;;;;;;;;4983406;28;20487;-96
2023/04/29 09:20:15;;;;;;;;;;;;;;;;;;4984214;28;19922;-92
2023/04/29 09:22:47;;;;;;;;;;;;;;;;;;5000663;28;19929;-93
2023/04/29 09:25:14;;;;;;;;;;;;;;;;;;5014092;28;19928;-92
2023/04/29 09:27:41;;;;;;;;;;;;;;;;;;4981346;28;19922;-91
2023/04/29 09:30:07;;;;;;;;;;;;;;;;;;4997219;28;19926;-96
2023/04/29 09:32:33;;;;;;;;;;;;;;;;;;4981549;28;19921;-96
2023/04/29 09:34:59;;;;;;;;;;;;;;;;;;4981011;28;19944;-95
2023/04/29 09:37:26;;;;;;;;;;;;;;;;;;4980037;28;19930;-95
2023/04/29 09:39:52;;;;;;;;;;;;;;;;;;4979971;28;19921;-96
2023/04/29 09:42:18;;;;;;;;;;;;;;;;;;4980943;28;19991;-96
2023/04/29 09:45:02;;;;;;;;;;;;;;;;;;4998057;28;19969;-95
2023/04/29 09:47:28;;;;;;;;;;;;;;;;;;4980998;28;19932;-95
2023/04/29 09:49:54;;;;;;;;;;;;;;;;;;4980619;28;19926;-95
2023/04/29 09:52:20;;;;;;;;;;;;;;;;;;4980537;28;19964;-95
2023/04/29 09:54:46;;;;;;;;;;;;;;;;;;4980318;28;20393;-92
2023/04/29 09:57:13;;;;;;;;;;;;;;;;;;4980468;28;19929;-93
2023/04/29 09:59:39;;;;;;;;;;;;;;;;;;4980035;28;19922;-94
2023/04/29 10:02:06;;;;;;;;;;;;;;;;;;4980803;28;20103;-93
2023/04/29 10:04:33;;;;;;;;;;;;;;;;;;4979961;28;19989;-93
2023/04/29 10:07:00;;;;;;;;;;;;;;;;;;4979656;28;19921;-93
2023/04/29 10:09:32;;;;;;;;;;;;;;;;;;4980234;28;19936;-94
2023/04/29 10:11:58;;;;;;;;;;;;;;;;;;4981124;28;19926;-93
2023/04/29 10:14:24;;;;;;;;;;;;;;;;;;4979338;28;20246;-92
2023/04/29 10:16:50;;;;;;;;;;;;;;;;;;4979850;28;19921;-91
2023/04/29 10:19:16;;;;;;;;;;;;;;;;;;4980381;28;19925;-96
2023/04/29 10:21:45;;;;;;;;;;;;;;;;;;5000828;28;19947;-96
2023/04/29 10:24:12;;;;;;;;;;;;;;;;;;4980048;28;19928;-96
2023/04/29 10:26:38;;;;;;;;;;;;;;;;;;4979021;28;19929;-96
2023/04/29 10:29:04;;;;;;;;;;;;;;;;;;4978600;28;19984;-96
2023/04/29 10:31:30;;;;;;;;;;;;;;;;;;4979973;28;19925;-93
2023/04/29 10:33:56;;;;;;;;;;;;;;;;;;4979125;28;19925;-92
2023/04/29 10:36:22;;;;;;;;;;;;;;;;;;4978741;28;19973;-93
2023/04/29 10:38:50;;;;;;;;;;;;;;;;;;4979145;28;19921;-89
2023/04/29 10:41:17;;;;;;;;;;;;;;;;;;4994981;28;19932;-89
2023/04/29 10:43:43;;;;;;;;;;;;;;;;;;4978218;28;19921;-90
2023/04/29 10:46:09;;;;;;;;;;;;;;;;;;4994627;28;19921;-90
2023/04/29 10:48:35;;;;;;;;;;;;;;;;;;4995487;28;19921;-93
2023/04/29 10:51:16;;;;;;;;;;;;;;;;;;4979703;28;20362;-94
2023/04/29 10:53:49;;;;;;;;;;;;;;;;;;5000287;28;19931;-95
2023/04/29 10:56:15;;;;;;;;;;;;;;;;;;4985648;28;20012;-91
2023/04/29 10:58:41;;;;;;;;;;;;;;;;;;4997268;28;19932;-89
2023/04/29 11:01:09;;;;;;;;;;;;;;;;;;4982518;28;19921;-90
2023/04/29 11:03:35;;;;;;;;;;;;;;;;;;4982110;28;19979;-91
2023/04/29 11:06:01;;;;;;;;;;;;;;;;;;4998585;28;20249;-89
2023/04/29 11:08:27;;;;;;;;;;;;;;;;;;4998424;28;20140;-89
2023/04/29 11:10:52;;;;;;;;;;;;;;;;;;4998352;28;19925;-89
2023/04/29 11:13:18;;;;;;;;;;;;;;;;;;4982133;28;19921;-90
2023/04/29 11:15:44;;;;;;;;;;;;;;;;;;4982367;28;19999;-90
2023/04/29 11:18:10;;;;;;;;;;;;;;;;;;4998338;28;20365;-90
2023/04/29 11:20:36;;;;;;;;;;;;;;;;;;4998392;28;19956;-90
2023/04/29 11:23:05;;;;;;;;;;;;;;;;;;4983657;28;19929;-95
2023/04/29 11:25:31;;;;;;;;;;;;;;;;;;4985056;28;20214;-96
2023/04/29 11:28:10;;;;;;;;;;;;;;;;;;5010344;28;19921;-95
2023/04/29 11:30:36;;;;;;;;;;;;;;;;;;4983100;28;19930;-95
2023/04/29 11:33:02;;;;;;;;;;;;;;;;;;4981527;28;19932;-95
2023/04/29 11:35:28;;;;;;;;;;;;;;;;;;5015412;28;19922;-94
2023/04/29 11:37:54;;;;;;;;;;;;;;;;;;5017775;28;19926;-93
2023/04/29 11:40:20;;;;;;;;;;;;;;;;;;4980208;28;19987;-93
2023/04/29 11:42:46;;;;;;;;;;;;;;;;;;5000519;28;19925;-94
2023/04/29 11:45:12;;;;;;;;;;;;;;;;;;4982694;28;19921;-94
2023/04/29 11:47:38;;;;;;;;;;;;;;;;;;4971236;28;20052;-94
2023/04/29 11:50:04;;;;;;;;;;;;;;;;;;4983348;28;19925;-96
2023/04/29 11:52:30;;;;;;;;;;;;;;;;;;4999161;28;20030;-94
2023/04/29 11:54:55;;;;;;;;;;;;;;;;;;4998909;28;19925;-95
2023/04/29 11:57:21;;;;;;;;;;;;;;;;;;4998885;28;20377;-96
2023/04/29 11:59:47;;;;;;;;;;;;;;;;;;4998502;28;19951;-96
2023/04/29 12:02:13;;;;;;;;;;;;;;;;;;4982455;28;20112;-96
2023/04/29 12:04:40;;;;;;;;;;;;;;;;;;4982726;28;19921;-94
2023/04/29 12:07:06;;;;;;;;;;;;;;;;;;4998921;28;20503;-94
2023/04/29 12:09:32;;;;;;;;;;;;;;;;;;4981912;28;20168;-96
2023/04/29 12:11:58;;;;;;;;;;;;;;;;;;4983453;28;19968;-94
2023/04/29 12:14:24;;;;;;;;;;;;;;;;;;4983888;28;20404;-95
2023/04/29 12:16:51;;;;;;;;;;;;;;;;;;4998249;28;19925;-95
2023/04/29 12:19:16;;;;;;;;;;;;;;;;;;4998408;28;20012;-94
2023/04/29 12:21:45;;;;;;;;;;;;;;;;;;4999096;28;19964;-93
2023/04/29 12:24:11;;;;;;;;;;;;;;;;;;4981207;28;19922;-95
2023/04/29 12:26:37;;;;;;;;;;;;;;;;;;4981297;28;19921;-94
2023/04/29 12:29:03;;;;;;;;;;;;;;;;;;4980627;28;19926;-90
2023/04/29 12:31:29;;;;;;;;;;;;;;;;;;4996839;28;19925;-92
2023/04/29 12:33:55;;;;;;;;;;;;;;;;;;4983155;28;19932;-93
2023/04/29 12:36:21;;;;;;;;;;;;;;;;;;4997682;28;19921;-93
2023/04/29 12:38:48;;;;;;;;;;;;;;;;;;4997635;28;19922;-92
2023/04/29 12:41:16;;;;;;;;;;;;;;;;;;4981495;28;19921;-93
2023/04/29 12:43:41;;;;;;;;;;;;;;;;;;4981144;28;19929;-92
2023/04/29 12:46:07;;;;;;;;;;;;;;;;;;4996961;28;20403;-93
2023/04/29 12:48:33;;;;;;;;;;;;;;;;;;4981520;28;19921;-94
2023/04/29 12:50:59;;;;;;;;;;;;;;;;;;4980915;28;20120;-92
2023/04/29 12:53:26;;;;;;;;;;;;;;;;;;4980827;28;20008;-93
2023/04/29 12:55:52;;;;;;;;;;;;;;;;;;4997136;28;19921;-92
2023/04/29 12:58:17;;;;;;;;;;;;;;;;;;4980779;28;19925;-92
2023/04/29 13:00:43;;;;;;;;;;;;;;;;;;4980969;28;19928;-93
2023/04/29 13:03:09;;;;;;;;;;;;;;;;;;4997383;28;19985;-92
2023/04/29 13:05:35;;;;;;;;;;;;;;;;;;4980837;28;19933;-93
2023/04/29 13:08:01;;;;;;;;;;;;;;;;;;4981231;28;20480;-94
2023/04/29 13:10:27;;;;;;;;;;;;;;;;;;4997051;28;20389;-93
2023/04/29 13:12:53;;;;;;;;;;;;;;;;;;4996985;28;20298;-95
2023/04/29 13:15:20;;;;;;;;;;;;;;;;;;4981182;28;19956;-93
2023/04/29 13:17:46;;;;;;;;;;;;;;;;;;4980794;28;19932;-94
2023/04/29 13:20:12;;;;;;;;;;;;;;;;;;4980304;28;19922;-92
2023/04/29 13:22:38;;;;;;;;;;;;;;;;;;4981027;28;19922;-95
2023/04/29 13:25:04;;;;;;;;;;;;;;;;;;4981008;28;19971;-93
2023/04/29 13:27:30;;;;;;;;;;;;;;;;;;4979162;28;19926;-94
2023/04/29 13:29:56;;;;;;;;;;;;;;;;;;4980733;28;19930;-95
2023/04/29 13:32:23;;;;;;;;;;;;;;;;;;4997380;28;19922;-95
2023/04/29 13:34:49;;;;;;;;;;;;;;;;;;4980624;28;19977;-93
2023/04/29 13:37:15;;;;;;;;;;;;;;;;;;4980480;28;19983;-93
2023/04/29 13:39:41;;;;;;;;;;;;;;;;;;4981153;28;19921;-93
2023/04/29 13:42:08;;;;;;;;;;;;;;;;;;4980560;28;19932;-95
2023/04/29 13:44:35;;;;;;;;;;;;;;;;;;4980504;28;19922;-96
2023/04/29 13:47:01;;;;;;;;;;;;;;;;;;4980865;28;20293;-95
2023/04/29 13:49:27;;;;;;;;;;;;;;;;;;4980330;28;19932;-94
2023/04/29 13:51:53;;;;;;;;;;;;;;;;;;4980331;28;19994;-93
2023/04/29 13:54:20;;;;;;;;;;;;;;;;;;4996527;28;19922;-95
2023/04/29 13:56:45;;;;;;;;;;;;;;;;;;4980706;28;19925;-94
2023/04/29 13:59:11;;;;;;;;;;;;;;;;;;4980029;28;20246;-95
2023/04/29 14:01:37;;;;;;;;;;;;;;;;;;4980528;28;19933;-94
2023/04/29 14:04:03;;;;;;;;;;;;;;;;;;4980934;28;20008;-96
2023/04/29 14:06:31;;;;;;;;;;;;;;;;;;4979913;28;19933;-95
2023/04/29 14:08:57;;;;;;;;;;;;;;;;;;4980031;28;19928;-93
2023/04/29 14:11:23;;;;;;;;;;;;;;;;;;4995988;23;19910;-94
2023/04/29 14:13:49;;;;;;;;;;;;;;;;;;4999482;28;19921;-96
2023/04/29 14:16:15;;;;;;;;;;;;;;;;;;5005635;28;19921;-95
2023/04/29 14:18:41;;;;;;;;;;;;;;;;;;4999716;28;20435;-94
2023/04/29 14:21:07;;;;;;;;;;;;;;;;;;5015953;28;19921;-94
2023/04/29 14:23:33;;;;;;;;;;;;;;;;;;5000673;28;19921;-95
2023/04/29 14:25:59;;;;;;;;;;;;;;;;;;5000370;28;19922;-94
2023/04/29 14:28:25;;;;;;;;;;;;;;;;;;5000634;28;20308;-96
2023/04/29 14:30:51;;;;;;;;;;;;;;;;;;4996963;28;20016;-92
2023/04/29 14:33:17;;;;;;;;;;;;;;;;;;4996220;28;20277;-93
2023/04/29 14:35:43;;;;;;;;;;;;;;;;;;4999125;28;19922;-93
2023/04/29 14:38:11;;;;;;;;;;;;;;;;;;4995314;28;19936;-93
2023/04/29 14:40:37;;;;;;;;;;;;;;;;;;4995686;28;20257;-91
2023/04/29 14:43:04;;;;;;;;;;;;;;;;;;4995201;28;19922;-90
2023/04/29 14:45:30;;;;;;;;;;;;;;;;;;4995056;28;19968;-91
2023/04/29 14:47:55;;;;;;;;;;;;;;;;;;4995117;28;20368;-92
2023/04/29 14:50:23;;;;;;;;;;;;;;;;;;4994542;28;19925;-90
2023/04/29 14:52:49;;;;;;;;;;;;;;;;;;4994916;28;19971;-91
2023/04/29 14:55:15;;;;;;;;;;;;;;;;;;4994624;28;19922;-92
2023/04/29 14:57:41;;;;;;;;;;;;;;;;;;5011672;28;19926;-92
2023/04/29 15:00:07;;;;;;;;;;;;;;;;;;4994813;28;19944;-93
2023/04/29 15:02:33;;;;;;;;;;;;;;;;;;4994806;28;19925;-92
2023/04/29 15:04:59;;;;;;;;;;;;;;;;;;4994284;28;19955;-90
2023/04/29 15:07:25;;;;;;;;;;;;;;;;;;5011413;28;20369;-90
2023/04/29 15:09:51;;;;;;;;;;;;;;;;;;4994430;28;20000;-89
2023/04/29 15:12:18;;;;;;;;;;;;;;;;;;5002842;28;20012;-90
2023/04/29 15:14:44;;;;;;;;;;;;;;;;;;4977644;28;19921;-89
2023/04/29 15:17:10;;;;;;;;;;;;;;;;;;4993942;28;19925;-90
2023/04/29 15:19:36;;;;;;;;;;;;;;;;;;4994308;28;19983;-89
2023/04/29 15:22:02;;;;;;;;;;;;;;;;;;4993795;28;19922;-91
2023/04/29 15:24:28;;;;;;;;;;;;;;;;;;4993937;28;19926;-90
2023/04/29 15:26:54;;;;;;;;;;;;;;;;;;4994085;28;19974;-89
2023/04/29 15:29:20;;;;;;;;;;;;;;;;;;4977568;28;19936;-90
2023/04/29 15:31:46;;;;;;;;;;;;;;;;;;4994252;28;19922;-92
2023/04/29 15:34:30;;;;;;;;;;;;;;;;;;4978602;28;19973;-96
2023/04/29 15:36:59;;;;;;;;;;;;;;;;;;4997020;28;19921;-92
2023/04/29 15:39:25;;;;;;;;;;;;;;;;;;4980307;28;19925;-93
2023/04/29 15:41:51;;;;;;;;;;;;;;;;;;4979161;28;20487;-94
2023/04/29 15:44:17;;;;;;;;;;;;;;;;;;4980680;28;19928;-92
2023/04/29 15:46:43;;;;;;;;;;;;;;;;;;4981284;28;19925;-88
2023/04/29 15:49:09;;;;;;;;;;;;;;;;;;4997159;28;19933;-88
2023/04/29 15:51:35;;;;;;;;;;;;;;;;;;4997543;28;19944;-89
2023/04/29 15:54:01;;;;;;;;;;;;;;;;;;4981042;28;19929;-91
2023/04/29 15:56:27;;;;;;;;;;;;;;;;;;4987677;28;19976;-93
2023/04/29 15:58:53;;;;;;;;;;;;;;;;;;4987327;28;19972;-91
2023/04/29 16:01:19;;;;;;;;;;;;;;;;;;5007421;28;19925;-96
2023/04/29 16:06:39;;;;;;;;;;;;;;;;;;4981539;28;20265;-96
2023/04/29 16:09:05;;;;;;;;;;;;;;;;;;4984503;28;19921;-92
2023/04/29 16:11:31;;;;;;;;;;;;;;;;;;4999964;28;20408;-92
2023/04/29 16:13:57;;;;;;;;;;;;;;;;;;5001246;28;19928;-93
2023/04/29 16:16:23;;;;;;;;;;;;;;;;;;5000369;28;20015;-93
2023/04/29 16:18:49;;;;;;;;;;;;;;;;;;5001044;28;19995;-93
2023/04/29 16:21:16;;;;;;;;;;;;;;;;;;5001363;28;20258;-94
2023/04/29 16:23:42;;;;;;;;;;;;;;;;;;5000552;28;19927;-94
2023/04/29 16:26:08;;;;;;;;;;;;;;;;;;5016836;28;19964;-91
2023/04/29 16:28:36;;;;;;;;;;;;;;;;;;5000145;28;19928;-92
2023/04/29 16:31:01;;;;;;;;;;;;;;;;;;5016758;28;19925;-92
2023/04/29 16:33:30;;;;;;;;;;;;;;;;;;5001453;28;19921;-92
2023/04/29 16:35:59;;;;;;;;;;;;;;;;;;5001450;28;20421;-94
2023/04/29 16:38:25;;;;;;;;;;;;;;;;;;5002615;28;19944;-94
2023/04/29 16:40:51;;;;;;;;;;;;;;;;;;5001142;28;19925;-96
2023/04/29 16:43:17;;;;;;;;;;;;;;;;;;5001293;28;20059;-95
2023/04/29 16:45:43;;;;;;;;;;;;;;;;;;5001206;28;19964;-95
2023/04/29 16:48:09;;;;;;;;;;;;;;;;;;5003037;28;19975;-96
2023/04/29 16:50:36;;;;;;;;;;;;;;;;;;5002906;28;19929;-92
2023/04/29 16:53:05;;;;;;;;;;;;;;;;;;5000669;28;19921;-95
2023/04/29 16:55:31;;;;;;;;;;;;;;;;;;4999273;28;20030;-94